sensor_id;sensor_type;location;lat;lon;timestamp;P1;P2;P0
23240;PMS7003;11789;53.482;9.862;2023-07-31T00:02:18;2.00;2.00;2.00
23240;PMS7003;11789;53.482;9.862;2023-07-31T00:04:43;4.25;2.00;1.75
23240;PMS7003;11789;53.482;9.862;2023-07-31T00:07:09;2.75;2.75;2.50
23240;PMS7003;11789;53.482;9.862;2023-07-31T00:09:34;2.00;2.00;1.00
23240;PMS7003;11789;53.482;9.862;2023-07-31T00:12:00;5.00;3.00;2.00
23240;PMS7003;11789;53.482;9.862;2023-07-31T00:14:25;6.00;3.00;3.00
23240;PMS7003;11789;53.482;9.862;2023-07-31T00:16:51;4.50;2.00;2.00
23240;PMS7003;11789;53.482;9.862;2023-07-31T00:19:16;2.00;2.00;2.00
23240;PMS7003;11789;53.482;9.862;2023-07-31T00:21:42;3.00;3.00;3.00
23240;PMS7003;11789;53.482;9.862;2023-07-31T00:24:07;3.50;2.00;2.00
23240;PMS7003;11789;53.482;9.862;2023-07-31T00:26:32;3.00;2.00;2.00
23240;PMS7003;11789;53.482;9.862;2023-07-31T00:28:58;3.00;3.00;2.50
23240;PMS7003;11789;53.482;9.862;2023-07-31T00:31:23;4.50;3.00;2.00
23240;PMS7003;11789;53.482;9.862;2023-07-31T00:33:49;3.00;3.00;2.25
23240;PMS7003;11789;53.482;9.862;2023-07-31T00:36:14;2.00;2.00;2.00
23240;PMS7003;11789;53.482;9.862;2023-07-31T00:38:40;5.00;2.00;2.00
23240;PMS7003;11789;53.482;9.862;2023-07-31T00:41:05;2.75;2.75;2.25
23240;PMS7003;11789;53.482;9.862;2023-07-31T00:43:30;2.75;2.75;2.00
23240;PMS7003;11789;53.482;9.862;2023-07-31T00:45:56;4.25;4.00;3.00
23240;PMS7003;11789;53.482;9.862;2023-07-31T00:48:21;3.00;3.00;2.25
23240;PMS7003;11789;53.482;9.862;2023-07-31T00:50:48;3.75;3.00;2.00
23240;PMS7003;11789;53.482;9.862;2023-07-31T00:53:16;3.25;3.00;3.00
23240;PMS7003;11789;53.482;9.862;2023-07-31T00:55:42;3.75;3.00;2.00
23240;PMS7003;11789;53.482;9.862;2023-07-31T00:58:08;4.25;3.50;2.50
23240;PMS7003;11789;53.482;9.862;2023-07-31T01:00:34;3.50;3.00;3.00
23240;PMS7003;11789;53.482;9.862;2023-07-31T01:02:59;5.75;4.00;3.00
23240;PMS7003;11789;53.482;9.862;2023-07-31T01:05:29;3.00;3.00;2.00
23240;PMS7003;11789;53.482;9.862;2023-07-31T01:08:06;2.50;2.50;2.00
23240;PMS7003;11789;53.482;9.862;2023-07-31T01:10:44;3.50;3.50;3.00
23240;PMS7003;11789;53.482;9.862;2023-07-31T01:13:14;4.75;3.00;3.00
23240;PMS7003;11789;53.482;9.862;2023-07-31T01:15:40;3.00;2.50;2.25
23240;PMS7003;11789;53.482;9.862;2023-07-31T01:18:05;4.50;4.25;3.25
23240;PMS7003;11789;53.482;9.862;2023-07-31T01:20:31;4.50;4.50;3.75
23240;PMS7003;11789;53.482;9.862;2023-07-31T01:31:23;4.75;4.75;3.75
23240;PMS7003;11789;53.482;9.862;2023-07-31T01:33:50;4.25;3.50;2.75
23240;PMS7003;11789;53.482;9.862;2023-07-31T01:36:18;5.75;3.25;3.00
23240;PMS7003;11789;53.482;9.862;2023-07-31T01:38:43;5.00;3.50;3.00
23240;PMS7003;11789;53.482;9.862;2023-07-31T01:41:09;4.75;4.50;4.00
23240;PMS7003;11789;53.482;9.862;2023-07-31T01:43:34;9.75;4.25;3.00
23240;PMS7003;11789;53.482;9.862;2023-07-31T01:46:00;4.00;4.00;3.00
23240;PMS7003;11789;53.482;9.862;2023-07-31T01:48:25;3.75;3.75;3.00
23240;PMS7003;11789;53.482;9.862;2023-07-31T01:50:51;3.75;3.75;2.50
23240;PMS7003;11789;53.482;9.862;2023-07-31T01:53:16;7.75;5.00;3.50
23240;PMS7003;11789;53.482;9.862;2023-07-31T01:55:42;5.00;5.00;4.00
23240;PMS7003;11789;53.482;9.862;2023-07-31T01:58:07;5.00;5.00;4.00
23240;PMS7003;11789;53.482;9.862;2023-07-31T02:00:33;5.50;4.00;3.50
23240;PMS7003;11789;53.482;9.862;2023-07-31T02:02:59;8.75;7.25;5.00
23240;PMS7003;11789;53.482;9.862;2023-07-31T02:05:25;4.25;3.00;3.00
23240;PMS7003;11789;53.482;9.862;2023-07-31T02:07:50;4.25;4.25;2.75
23240;PMS7003;11789;53.482;9.862;2023-07-31T02:10:16;5.50;4.50;3.50
23240;PMS7003;11789;53.482;9.862;2023-07-31T02:12:41;3.25;3.25;3.00
23240;PMS7003;11789;53.482;9.862;2023-07-31T02:15:07;5.00;4.25;3.50
23240;PMS7003;11789;53.482;9.862;2023-07-31T02:17:32;7.50;6.00;4.00
23240;PMS7003;11789;53.482;9.862;2023-07-31T02:19:58;7.75;4.25;3.50
23240;PMS7003;11789;53.482;9.862;2023-07-31T02:22:23;5.75;4.50;3.00
23240;PMS7003;11789;53.482;9.862;2023-07-31T02:24:48;4.00;4.00;3.00
23240;PMS7003;11789;53.482;9.862;2023-07-31T02:27:14;4.50;4.50;3.50
23240;PMS7003;11789;53.482;9.862;2023-07-31T02:29:39;5.00;5.00;4.00
23240;PMS7003;11789;53.482;9.862;2023-07-31T02:32:05;5.00;5.00;3.50
23240;PMS7003;11789;53.482;9.862;2023-07-31T02:34:31;5.50;4.50;3.75
23240;PMS7003;11789;53.482;9.862;2023-07-31T02:36:56;4.00;4.00;3.00
23240;PMS7003;11789;53.482;9.862;2023-07-31T02:39:22;3.75;3.75;3.75
23240;PMS7003;11789;53.482;9.862;2023-07-31T02:41:47;4.75;4.75;3.00
23240;PMS7003;11789;53.482;9.862;2023-07-31T02:44:12;5.00;4.25;3.75
23240;PMS7003;11789;53.482;9.862;2023-07-31T02:46:39;4.00;4.00;3.00
23240;PMS7003;11789;53.482;9.862;2023-07-31T02:49:05;4.00;4.00;3.00
23240;PMS7003;11789;53.482;9.862;2023-07-31T02:51:30;7.00;3.00;3.00
23240;PMS7003;11789;53.482;9.862;2023-07-31T02:53:56;6.25;5.00;4.00
23240;PMS7003;11789;53.482;9.862;2023-07-31T02:56:25;3.25;3.25;3.25
23240;PMS7003;11789;53.482;9.862;2023-07-31T02:58:53;4.25;4.25;3.75
23240;PMS7003;11789;53.482;9.862;2023-07-31T03:01:18;7.75;5.75;5.00
23240;PMS7003;11789;53.482;9.862;2023-07-31T03:03:44;5.00;4.00;3.00
23240;PMS7003;11789;53.482;9.862;2023-07-31T03:06:09;5.50;4.25;4.00
23240;PMS7003;11789;53.482;9.862;2023-07-31T03:08:35;4.25;4.25;4.00
23240;PMS7003;11789;53.482;9.862;2023-07-31T03:11:00;6.50;4.75;3.00
23240;PMS7003;11789;53.482;9.862;2023-07-31T03:13:25;4.25;4.00;3.25
23240;PMS7003;11789;53.482;9.862;2023-07-31T03:15:51;5.00;4.25;3.25
23240;PMS7003;11789;53.482;9.862;2023-07-31T03:18:16;6.75;4.75;3.00
23240;PMS7003;11789;53.482;9.862;2023-07-31T03:20:42;4.00;4.00;3.50
23240;PMS7003;11789;53.482;9.862;2023-07-31T03:23:09;3.75;3.75;3.00
23240;PMS7003;11789;53.482;9.862;2023-07-31T03:25:34;4.25;4.25;3.25
23240;PMS7003;11789;53.482;9.862;2023-07-31T03:28:00;4.00;4.00;4.00
23240;PMS7003;11789;53.482;9.862;2023-07-31T03:30:25;5.00;5.00;3.00
23240;PMS7003;11789;53.482;9.862;2023-07-31T03:32:50;6.00;4.00;3.75
23240;PMS7003;11789;53.482;9.862;2023-07-31T03:35:16;8.00;4.75;4.00
23240;PMS7003;11789;53.482;9.862;2023-07-31T03:37:41;5.00;4.00;4.00
23240;PMS7003;11789;53.482;9.862;2023-07-31T03:40:07;3.00;3.00;2.75
23240;PMS7003;11789;53.482;9.862;2023-07-31T03:45:30;4.50;4.50;4.00
23240;PMS7003;11789;53.482;9.862;2023-07-31T03:47:55;5.50;5.50;3.00
23240;PMS7003;11789;53.482;9.862;2023-07-31T03:50:21;6.00;5.00;3.25
23240;PMS7003;11789;53.482;9.862;2023-07-31T03:52:46;4.00;4.00;3.00
23240;PMS7003;11789;53.482;9.862;2023-07-31T03:55:12;6.00;6.00;4.00
23240;PMS7003;11789;53.482;9.862;2023-07-31T03:57:37;5.25;3.75;3.00
23240;PMS7003;11789;53.482;9.862;2023-07-31T04:00:03;3.75;3.75;3.00
23240;PMS7003;11789;53.482;9.862;2023-07-31T04:02:29;6.25;5.00;3.25
23240;PMS7003;11789;53.482;9.862;2023-07-31T04:04:54;3.00;3.00;2.50
23240;PMS7003;11789;53.482;9.862;2023-07-31T04:07:20;4.25;4.25;3.00
23240;PMS7003;11789;53.482;9.862;2023-07-31T04:09:45;5.25;4.00;3.50
23240;PMS7003;11789;53.482;9.862;2023-07-31T04:12:10;3.25;3.25;3.00
23240;PMS7003;11789;53.482;9.862;2023-07-31T04:14:36;4.00;4.00;4.00
23240;PMS7003;11789;53.482;9.862;2023-07-31T04:17:02;5.00;3.00;3.00
23240;PMS7003;11789;53.482;9.862;2023-07-31T04:19:27;3.50;3.50;3.25
23240;PMS7003;11789;53.482;9.862;2023-07-31T04:21:53;4.00;4.00;3.00
23240;PMS7003;11789;53.482;9.862;2023-07-31T04:24:18;4.00;4.00;3.00
23240;PMS7003;11789;53.482;9.862;2023-07-31T04:26:49;4.00;4.00;3.25
23240;PMS7003;11789;53.482;9.862;2023-07-31T04:29:15;4.00;4.00;3.50
23240;PMS7003;11789;53.482;9.862;2023-07-31T04:31:41;4.25;4.00;3.00
23240;PMS7003;11789;53.482;9.862;2023-07-31T04:34:06;4.25;3.00;2.00
23240;PMS7003;11789;53.482;9.862;2023-07-31T04:36:33;5.50;3.00;2.00
23240;PMS7003;11789;53.482;9.862;2023-07-31T04:38:58;4.00;4.00;3.00
23240;PMS7003;11789;53.482;9.862;2023-07-31T04:41:24;3.00;3.00;3.00
23240;PMS7003;11789;53.482;9.862;2023-07-31T04:43:50;4.00;4.00;3.00
23240;PMS7003;11789;53.482;9.862;2023-07-31T04:46:15;7.25;4.00;3.00
23240;PMS7003;11789;53.482;9.862;2023-07-31T04:48:40;4.00;4.00;3.00
23240;PMS7003;11789;53.482;9.862;2023-07-31T04:51:06;4.00;4.00;3.75
23240;PMS7003;11789;53.482;9.862;2023-07-31T04:53:31;5.75;4.25;3.00
23240;PMS7003;11789;53.482;9.862;2023-07-31T04:55:57;6.75;5.25;5.00
23240;PMS7003;11789;53.482;9.862;2023-07-31T04:58:22;4.25;4.25;3.00
23240;PMS7003;11789;53.482;9.862;2023-07-31T05:00:48;4.50;4.50;3.25
23240;PMS7003;11789;53.482;9.862;2023-07-31T05:03:13;3.75;3.75;3.00
23240;PMS7003;11789;53.482;9.862;2023-07-31T05:05:39;4.25;4.25;2.75
23240;PMS7003;11789;53.482;9.862;2023-07-31T05:08:04;3.00;3.00;2.25
23240;PMS7003;11789;53.482;9.862;2023-07-31T05:10:30;6.00;4.25;3.00
23240;PMS7003;11789;53.482;9.862;2023-07-31T05:12:55;4.00;4.00;3.00
23240;PMS7003;11789;53.482;9.862;2023-07-31T05:15:20;4.00;4.00;3.00
23240;PMS7003;11789;53.482;9.862;2023-07-31T05:17:46;6.00;5.00;4.00
23240;PMS7003;11789;53.482;9.862;2023-07-31T05:20:11;4.00;4.00;3.00
23240;PMS7003;11789;53.482;9.862;2023-07-31T05:22:37;5.75;5.75;4.00
23240;PMS7003;11789;53.482;9.862;2023-07-31T05:25:03;3.00;3.00;2.25
23240;PMS7003;11789;53.482;9.862;2023-07-31T05:27:29;3.00;3.00;2.00
23240;PMS7003;11789;53.482;9.862;2023-07-31T05:29:54;4.25;4.25;4.00
23240;PMS7003;11789;53.482;9.862;2023-07-31T05:32:23;4.00;4.00;3.00
23240;PMS7003;11789;53.482;9.862;2023-07-31T05:34:50;4.00;4.00;3.25
23240;PMS7003;11789;53.482;9.862;2023-07-31T05:37:17;5.00;5.00;4.75
23240;PMS7003;11789;53.482;9.862;2023-07-31T05:39:42;5.50;5.50;4.00
23240;PMS7003;11789;53.482;9.862;2023-07-31T05:42:08;6.25;4.25;3.25
23240;PMS7003;11789;53.482;9.862;2023-07-31T05:44:33;4.00;4.00;4.00
23240;PMS7003;11789;53.482;9.862;2023-07-31T05:46:59;4.00;4.00;3.00
23240;PMS7003;11789;53.482;9.862;2023-07-31T05:49:24;6.00;6.00;4.00
23240;PMS7003;11789;53.482;9.862;2023-07-31T05:51:49;5.75;4.50;3.75
23240;PMS7003;11789;53.482;9.862;2023-07-31T05:54:15;6.00;6.00;4.50
23240;PMS7003;11789;53.482;9.862;2023-07-31T05:56:40;4.00;4.00;4.00
23240;PMS7003;11789;53.482;9.862;2023-07-31T05:59:06;6.00;4.50;4.00
23240;PMS7003;11789;53.482;9.862;2023-07-31T06:01:31;8.50;7.25;4.25
23240;PMS7003;11789;53.482;9.862;2023-07-31T06:03:57;6.25;6.25;4.25
23240;PMS7003;11789;53.482;9.862;2023-07-31T06:06:22;4.50;4.50;4.00
23240;PMS7003;11789;53.482;9.862;2023-07-31T06:08:48;6.00;4.75;4.00
23240;PMS7003;11789;53.482;9.862;2023-07-31T06:11:13;4.25;4.25;4.00
23240;PMS7003;11789;53.482;9.862;2023-07-31T06:13:38;4.25;4.25;3.25
23240;PMS7003;11789;53.482;9.862;2023-07-31T06:16:04;6.75;5.50;4.00
23240;PMS7003;11789;53.482;9.862;2023-07-31T06:18:34;6.00;6.00;4.50
23240;PMS7003;11789;53.482;9.862;2023-07-31T06:20:59;7.00;4.75;3.75
23240;PMS7003;11789;53.482;9.862;2023-07-31T06:23:25;6.00;4.00;4.00
23240;PMS7003;11789;53.482;9.862;2023-07-31T06:25:50;4.25;4.25;3.00
23240;PMS7003;11789;53.482;9.862;2023-07-31T06:28:16;5.75;5.75;4.00
23240;PMS7003;11789;53.482;9.862;2023-07-31T06:30:41;5.00;5.00;4.00
23240;PMS7003;11789;53.482;9.862;2023-07-31T06:33:07;5.00;5.00;4.00
23240;PMS7003;11789;53.482;9.862;2023-07-31T06:35:32;5.50;4.00;3.50
23240;PMS7003;11789;53.482;9.862;2023-07-31T06:37:58;5.00;5.00;3.00
23240;PMS7003;11789;53.482;9.862;2023-07-31T06:40:23;5.25;4.00;3.00
23240;PMS7003;11789;53.482;9.862;2023-07-31T06:42:49;5.00;5.00;3.00
23240;PMS7003;11789;53.482;9.862;2023-07-31T06:45:14;5.50;5.50;4.00
23240;PMS7003;11789;53.482;9.862;2023-07-31T06:47:40;4.00;4.00;3.00
23240;PMS7003;11789;53.482;9.862;2023-07-31T06:50:05;5.00;5.00;4.00
23240;PMS7003;11789;53.482;9.862;2023-07-31T06:52:32;6.00;6.00;4.50
23240;PMS7003;11789;53.482;9.862;2023-07-31T06:55:01;4.00;4.00;3.00
23240;PMS7003;11789;53.482;9.862;2023-07-31T06:57:28;4.00;4.00;2.50
23240;PMS7003;11789;53.482;9.862;2023-07-31T06:59:54;4.00;4.00;3.25
23240;PMS7003;11789;53.482;9.862;2023-07-31T07:02:19;4.50;4.50;3.50
23240;PMS7003;11789;53.482;9.862;2023-07-31T07:04:45;4.50;4.50;3.00
23240;PMS7003;11789;53.482;9.862;2023-07-31T07:07:11;4.00;4.00;3.00
23240;PMS7003;11789;53.482;9.862;2023-07-31T07:09:40;5.75;4.00;3.00
23240;PMS7003;11789;53.482;9.862;2023-07-31T07:12:05;5.00;3.25;2.75
23240;PMS7003;11789;53.482;9.862;2023-07-31T07:14:31;4.75;3.25;2.75
23240;PMS7003;11789;53.482;9.862;2023-07-31T07:16:56;4.00;4.00;3.25
23240;PMS7003;11789;53.482;9.862;2023-07-31T07:19:22;3.50;3.50;3.00
23240;PMS7003;11789;53.482;9.862;2023-07-31T07:21:47;5.00;5.00;4.25
23240;PMS7003;11789;53.482;9.862;2023-07-31T07:24:13;3.25;3.25;3.00
23240;PMS7003;11789;53.482;9.862;2023-07-31T07:26:38;5.25;3.75;3.00
23240;PMS7003;11789;53.482;9.862;2023-07-31T07:29:03;3.00;3.00;3.00
23240;PMS7003;11789;53.482;9.862;2023-07-31T07:31:32;3.00;3.00;2.75
23240;PMS7003;11789;53.482;9.862;2023-07-31T07:33:57;3.00;3.00;2.00
23240;PMS7003;11789;53.482;9.862;2023-07-31T07:36:23;3.00;3.00;3.00
23240;PMS7003;11789;53.482;9.862;2023-07-31T07:38:48;3.25;3.25;3.00
23240;PMS7003;11789;53.482;9.862;2023-07-31T07:41:13;3.50;3.50;3.00
23240;PMS7003;11789;53.482;9.862;2023-07-31T07:43:39;3.00;3.00;2.75
23240;PMS7003;11789;53.482;9.862;2023-07-31T07:46:04;3.25;3.25;2.50
23240;PMS7003;11789;53.482;9.862;2023-07-31T07:48:30;3.50;3.00;2.00
23240;PMS7003;11789;53.482;9.862;2023-07-31T07:50:55;4.50;3.00;2.50
23240;PMS7003;11789;53.482;9.862;2023-07-31T07:53:24;4.00;4.00;3.00
23240;PMS7003;11789;53.482;9.862;2023-07-31T07:55:49;2.00;2.00;1.75
23240;PMS7003;11789;53.482;9.862;2023-07-31T07:58:15;2.00;2.00;2.00
23240;PMS7003;11789;53.482;9.862;2023-07-31T08:00:40;2.25;2.25;2.00
23240;PMS7003;11789;53.482;9.862;2023-07-31T08:03:06;2.00;2.00;1.50
23240;PMS7003;11789;53.482;9.862;2023-07-31T08:05:31;2.00;2.00;2.00
23240;PMS7003;11789;53.482;9.862;2023-07-31T08:07:59;2.00;2.00;1.25
23240;PMS7003;11789;53.482;9.862;2023-07-31T08:10:24;2.00;2.00;1.75
23240;PMS7003;11789;53.482;9.862;2023-07-31T08:12:50;2.00;2.00;1.00
23240;PMS7003;11789;53.482;9.862;2023-07-31T08:15:15;1.00;1.00;1.00
23240;PMS7003;11789;53.482;9.862;2023-07-31T08:17:41;1.00;1.00;1.00
23240;PMS7003;11789;53.482;9.862;2023-07-31T08:20:06;1.00;1.00;1.00
23240;PMS7003;11789;53.482;9.862;2023-07-31T08:22:33;2.00;2.00;1.50
23240;PMS7003;11789;53.482;9.862;2023-07-31T08:24:59;1.00;1.00;1.00
23240;PMS7003;11789;53.482;9.862;2023-07-31T08:27:25;1.00;1.00;1.00
23240;PMS7003;11789;53.482;9.862;2023-07-31T08:29:51;1.00;1.00;0.75
23240;PMS7003;11789;53.482;9.862;2023-07-31T08:32:17;1.00;1.00;1.00
23240;PMS7003;11789;53.482;9.862;2023-07-31T08:34:42;1.00;1.00;1.00
23240;PMS7003;11789;53.482;9.862;2023-07-31T08:37:08;2.00;2.00;1.00
23240;PMS7003;11789;53.482;9.862;2023-07-31T08:39:33;0.00;0.00;0.00
23240;PMS7003;11789;53.482;9.862;2023-07-31T08:41:59;1.00;1.00;1.00
23240;PMS7003;11789;53.482;9.862;2023-07-31T08:44:27;1.00;1.00;0.00
23240;PMS7003;11789;53.482;9.862;2023-07-31T08:46:54;1.00;1.00;1.00
23240;PMS7003;11789;53.482;9.862;2023-07-31T08:49:20;0.75;0.75;0.75
23240;PMS7003;11789;53.482;9.862;2023-07-31T08:51:48;0.75;0.75;0.75
23240;PMS7003;11789;53.482;9.862;2023-07-31T08:54:15;1.00;1.00;0.67
23240;PMS7003;11789;53.482;9.862;2023-07-31T08:56:41;1.00;1.00;0.33
23240;PMS7003;11789;53.482;9.862;2023-07-31T08:59:08;1.00;1.00;0.00
23240;PMS7003;11789;53.482;9.862;2023-07-31T09:01:35;0.00;0.00;0.00
23240;PMS7003;11789;53.482;9.862;2023-07-31T09:04:08;0.25;0.25;0.00
23240;PMS7003;11789;53.482;9.862;2023-07-31T09:06:34;0.00;0.00;0.00
23240;PMS7003;11789;53.482;9.862;2023-07-31T09:09:03;0.00;0.00;0.00
23240;PMS7003;11789;53.482;9.862;2023-07-31T09:11:29;0.00;0.00;0.00
23240;PMS7003;11789;53.482;9.862;2023-07-31T09:13:55;0.00;0.00;0.00
23240;PMS7003;11789;53.482;9.862;2023-07-31T09:16:28;0.00;0.00;0.00
23240;PMS7003;11789;53.482;9.862;2023-07-31T09:18:57;0.75;0.75;0.00
23240;PMS7003;11789;53.482;9.862;2023-07-31T09:21:24;0.00;0.00;0.00
23240;PMS7003;11789;53.482;9.862;2023-07-31T09:23:51;0.00;0.00;0.00
23240;PMS7003;11789;53.482;9.862;2023-07-31T09:26:35;0.00;0.00;0.00
23240;PMS7003;11789;53.482;9.862;2023-07-31T09:29:03;0.00;0.00;0.00
23240;PMS7003;11789;53.482;9.862;2023-07-31T09:31:40;0.00;0.00;0.00
23240;PMS7003;11789;53.482;9.862;2023-07-31T09:34:07;0.00;0.00;0.00
23240;PMS7003;11789;53.482;9.862;2023-07-31T09:36:34;0.00;0.00;0.00
23240;PMS7003;11789;53.482;9.862;2023-07-31T09:39:05;0.00;0.00;0.00
23240;PMS7003;11789;53.482;9.862;2023-07-31T09:41:41;0.00;0.00;0.00
23240;PMS7003;11789;53.482;9.862;2023-07-31T09:44:08;0.00;0.00;0.00
23240;PMS7003;11789;53.482;9.862;2023-07-31T09:46:37;0.00;0.00;0.00
23240;PMS7003;11789;53.482;9.862;2023-07-31T09:49:09;0.00;0.00;0.00
23240;PMS7003;11789;53.482;9.862;2023-07-31T09:51:36;0.00;0.00;0.00
23240;PMS7003;11789;53.482;9.862;2023-07-31T09:54:13;0.00;0.00;0.00
23240;PMS7003;11789;53.482;9.862;2023-07-31T09:56:42;1.00;0.00;0.00
23240;PMS7003;11789;53.482;9.862;2023-07-31T09:59:18;0.00;0.00;0.00
23240;PMS7003;11789;53.482;9.862;2023-07-31T10:01:45;0.00;0.00;0.00
23240;PMS7003;11789;53.482;9.862;2023-07-31T10:04:11;0.00;0.00;0.00
23240;PMS7003;11789;53.482;9.862;2023-07-31T10:06:38;0.00;0.00;0.00
23240;PMS7003;11789;53.482;9.862;2023-07-31T10:09:05;0.00;0.00;0.00
23240;PMS7003;11789;53.482;9.862;2023-07-31T10:11:41;1.00;0.00;0.00
23240;PMS7003;11789;53.482;9.862;2023-07-31T10:14:09;0.00;0.00;0.00
23240;PMS7003;11789;53.482;9.862;2023-07-31T10:16:37;0.00;0.00;0.00
23240;PMS7003;11789;53.482;9.862;2023-07-31T10:19:04;0.00;0.00;0.00
23240;PMS7003;11789;53.482;9.862;2023-07-31T10:21:31;0.00;0.00;0.00
23240;PMS7003;11789;53.482;9.862;2023-07-31T10:24:01;0.00;0.00;0.00
23240;PMS7003;11789;53.482;9.862;2023-07-31T10:26:28;0.00;0.00;0.00
23240;PMS7003;11789;53.482;9.862;2023-07-31T10:28:55;0.00;0.00;0.00
23240;PMS7003;11789;53.482;9.862;2023-07-31T10:31:22;0.00;0.00;0.00
23240;PMS7003;11789;53.482;9.862;2023-07-31T10:33:49;0.00;0.00;0.00
23240;PMS7003;11789;53.482;9.862;2023-07-31T10:36:19;0.00;0.00;0.00
23240;PMS7003;11789;53.482;9.862;2023-07-31T10:38:45;1.00;1.00;1.00
23240;PMS7003;11789;53.482;9.862;2023-07-31T10:41:13;2.00;0.00;0.00
23240;PMS7003;11789;53.482;9.862;2023-07-31T10:43:39;2.50;2.25;2.00
23240;PMS7003;11789;53.482;9.862;2023-07-31T10:46:06;4.75;3.00;2.00
23240;PMS7003;11789;53.482;9.862;2023-07-31T10:48:36;9.50;6.75;4.50
23240;PMS7003;11789;53.482;9.862;2023-07-31T10:51:06;13.75;11.00;7.00
23240;PMS7003;11789;53.482;9.862;2023-07-31T10:53:34;7.00;7.00;5.75
23240;PMS7003;11789;53.482;9.862;2023-07-31T10:56:00;16.00;13.50;8.00
23240;PMS7003;11789;53.482;9.862;2023-07-31T10:58:26;15.25;13.50;9.00
23240;PMS7003;11789;53.482;9.862;2023-07-31T11:00:55;13.25;12.75;8.50
23240;PMS7003;11789;53.482;9.862;2023-07-31T11:03:41;10.25;10.25;7.00
23240;PMS7003;11789;53.482;9.862;2023-07-31T11:06:17;11.00;11.00;7.75
23240;PMS7003;11789;53.482;9.862;2023-07-31T11:08:43;14.50;12.25;7.25
23240;PMS7003;11789;53.482;9.862;2023-07-31T11:11:14;11.00;8.50;6.25
23240;PMS7003;11789;53.482;9.862;2023-07-31T11:13:50;10.75;10.75;7.00
23240;PMS7003;11789;53.482;9.862;2023-07-31T11:16:21;9.25;9.25;6.50
23240;PMS7003;11789;53.482;9.862;2023-07-31T11:18:48;13.50;9.25;6.00
23240;PMS7003;11789;53.482;9.862;2023-07-31T11:21:20;9.25;9.25;6.25
23240;PMS7003;11789;53.482;9.862;2023-07-31T11:23:47;8.00;7.75;5.25
23240;PMS7003;11789;53.482;9.862;2023-07-31T11:26:21;8.25;8.25;5.00
23240;PMS7003;11789;53.482;9.862;2023-07-31T11:28:49;6.50;6.50;5.50
23240;PMS7003;11789;53.482;9.862;2023-07-31T11:31:16;7.25;6.00;4.75
23240;PMS7003;11789;53.482;9.862;2023-07-31T11:33:42;7.50;7.50;5.00
23240;PMS7003;11789;53.482;9.862;2023-07-31T11:36:18;8.25;6.25;4.75
23240;PMS7003;11789;53.482;9.862;2023-07-31T11:38:45;9.00;7.00;5.00
23240;PMS7003;11789;53.482;9.862;2023-07-31T11:41:13;8.25;6.00;5.00
23240;PMS7003;11789;53.482;9.862;2023-07-31T11:43:39;8.25;4.75;4.00
23240;PMS7003;11789;53.482;9.862;2023-07-31T11:46:05;7.00;5.75;4.00
23240;PMS7003;11789;53.482;9.862;2023-07-31T11:48:32;8.75;4.00;4.00
23240;PMS7003;11789;53.482;9.862;2023-07-31T11:51:04;6.00;6.00;4.00
23240;PMS7003;11789;53.482;9.862;2023-07-31T11:53:33;5.75;5.75;4.00
23240;PMS7003;11789;53.482;9.862;2023-07-31T11:56:03;5.00;5.00;3.75
23240;PMS7003;11789;53.482;9.862;2023-07-31T11:58:30;6.00;6.00;4.00
23240;PMS7003;11789;53.482;9.862;2023-07-31T12:00:57;4.50;4.50;3.75
23240;PMS7003;11789;53.482;9.862;2023-07-31T12:03:23;3.33;3.00;2.00
23240;PMS7003;11789;53.482;9.862;2023-07-31T12:05:49;4.67;4.67;3.00
23240;PMS7003;11789;53.482;9.862;2023-07-31T12:08:15;5.25;3.75;3.00
23240;PMS7003;11789;53.482;9.862;2023-07-31T12:10:41;3.00;3.00;3.00
23240;PMS7003;11789;53.482;9.862;2023-07-31T12:13:08;4.00;4.00;3.00
23240;PMS7003;11789;53.482;9.862;2023-07-31T12:15:42;3.50;3.50;2.00
23240;PMS7003;11789;53.482;9.862;2023-07-31T12:18:12;3.33;3.33;2.00
23240;PMS7003;11789;53.482;9.862;2023-07-31T12:20:40;3.00;3.00;2.00
23240;PMS7003;11789;53.482;9.862;2023-07-31T12:23:17;2.67;2.67;2.00
23240;PMS7003;11789;53.482;9.862;2023-07-31T12:25:44;2.00;2.00;2.00
23240;PMS7003;11789;53.482;9.862;2023-07-31T12:28:09;2.00;2.00;1.00
23240;PMS7003;11789;53.482;9.862;2023-07-31T12:30:38;2.00;2.00;1.67
23240;PMS7003;11789;53.482;9.862;2023-07-31T12:33:14;2.33;2.33;2.00
23240;PMS7003;11789;53.482;9.862;2023-07-31T12:35:41;2.00;2.00;2.00
23240;PMS7003;11789;53.482;9.862;2023-07-31T12:38:10;2.00;2.00;1.00
23240;PMS7003;11789;53.482;9.862;2023-07-31T12:40:40;3.00;1.00;1.00
23240;PMS7003;11789;53.482;9.862;2023-07-31T12:43:07;3.00;2.00;1.67
23240;PMS7003;11789;53.482;9.862;2023-07-31T12:45:34;1.00;1.00;1.00
23240;PMS7003;11789;53.482;9.862;2023-07-31T12:48:00;1.00;1.00;0.33
23240;PMS7003;11789;53.482;9.862;2023-07-31T12:50:26;1.00;1.00;1.00
23240;PMS7003;11789;53.482;9.862;2023-07-31T12:52:56;1.00;1.00;1.00
23240;PMS7003;11789;53.482;9.862;2023-07-31T12:55:22;1.00;1.00;1.00
23240;PMS7003;11789;53.482;9.862;2023-07-31T12:57:48;4.33;2.00;1.00
23240;PMS7003;11789;53.482;9.862;2023-07-31T13:00:14;2.00;1.00;1.00
23240;PMS7003;11789;53.482;9.862;2023-07-31T13:02:39;1.00;1.00;0.33
23240;PMS7003;11789;53.482;9.862;2023-07-31T13:05:11;1.00;1.00;1.00
23240;PMS7003;11789;53.482;9.862;2023-07-31T13:07:38;2.00;1.00;0.67
23240;PMS7003;11789;53.482;9.862;2023-07-31T13:10:03;1.00;1.00;1.00
23240;PMS7003;11789;53.482;9.862;2023-07-31T13:12:29;0.33;0.33;0.00
23240;PMS7003;11789;53.482;9.862;2023-07-31T13:14:54;0.33;0.33;0.33
23240;PMS7003;11789;53.482;9.862;2023-07-31T13:17:20;2.33;1.00;1.00
23240;PMS7003;11789;53.482;9.862;2023-07-31T13:19:46;3.00;1.00;1.00
23240;PMS7003;11789;53.482;9.862;2023-07-31T13:22:12;1.00;1.00;1.00
23240;PMS7003;11789;53.482;9.862;2023-07-31T13:24:37;1.00;1.00;1.00
23240;PMS7003;11789;53.482;9.862;2023-07-31T13:27:04;1.00;1.00;0.00
23240;PMS7003;11789;53.482;9.862;2023-07-31T13:29:29;1.00;1.00;0.33
23240;PMS7003;11789;53.482;9.862;2023-07-31T13:31:55;1.00;1.00;1.00
23240;PMS7003;11789;53.482;9.862;2023-07-31T13:34:21;2.00;1.00;1.00
23240;PMS7003;11789;53.482;9.862;2023-07-31T13:36:46;1.00;1.00;1.00
23240;PMS7003;11789;53.482;9.862;2023-07-31T13:39:12;1.00;1.00;1.00
23240;PMS7003;11789;53.482;9.862;2023-07-31T13:41:37;2.00;2.00;1.00
23240;PMS7003;11789;53.482;9.862;2023-07-31T13:44:03;1.00;1.00;1.00
23240;PMS7003;11789;53.482;9.862;2023-07-31T13:46:28;1.00;1.00;1.00
23240;PMS7003;11789;53.482;9.862;2023-07-31T13:48:54;2.00;1.00;0.67
23240;PMS7003;11789;53.482;9.862;2023-07-31T13:51:21;0.00;0.00;0.00
23240;PMS7003;11789;53.482;9.862;2023-07-31T13:53:47;0.33;0.33;0.00
23240;PMS7003;11789;53.482;9.862;2023-07-31T13:56:13;1.00;1.00;0.67
23240;PMS7003;11789;53.482;9.862;2023-07-31T13:58:38;0.00;0.00;0.00
23240;PMS7003;11789;53.482;9.862;2023-07-31T14:01:04;0.00;0.00;0.00
23240;PMS7003;11789;53.482;9.862;2023-07-31T14:03:29;0.00;0.00;0.00
23240;PMS7003;11789;53.482;9.862;2023-07-31T14:05:55;0.00;0.00;0.00
23240;PMS7003;11789;53.482;9.862;2023-07-31T14:08:21;0.00;0.00;0.00
23240;PMS7003;11789;53.482;9.862;2023-07-31T14:10:46;0.00;0.00;0.00
23240;PMS7003;11789;53.482;9.862;2023-07-31T14:13:12;1.00;1.00;0.00
23240;PMS7003;11789;53.482;9.862;2023-07-31T14:15:37;0.67;0.67;0.00
23240;PMS7003;11789;53.482;9.862;2023-07-31T14:18:04;0.00;0.00;0.00
23240;PMS7003;11789;53.482;9.862;2023-07-31T14:20:30;0.00;0.00;0.00
23240;PMS7003;11789;53.482;9.862;2023-07-31T14:22:55;0.00;0.00;0.00
23240;PMS7003;11789;53.482;9.862;2023-07-31T14:25:21;0.00;0.00;0.00
23240;PMS7003;11789;53.482;9.862;2023-07-31T14:27:46;0.33;0.33;0.33
23240;PMS7003;11789;53.482;9.862;2023-07-31T14:30:12;1.00;1.00;0.00